EGLCEGGW

Guest
Details From EGLC - London City
To EGGW - London Luton
Flight Number -
Tags decoded
Created
Modified
Stats Distance 27 nm / 50 km
Max Altitude 0 ft / 0 m
Waypoints 2
Social Downloads 0
Likes 0
Share

Download

Looking for another format? Having issues loading an existing format? Contact us
Advertisement - Login to hide

Notes

Requested: EGLC BAPK EGGW Unmatched points: BAPK

Route

EGLC EGGW

ID Type Via Altitude (ft/m) Position (lat/lon) Dist (leg/tot) Name
O EGLC APT - 0 / 0 51.50520 / 0.05518 - / 0 nm London City
O EGGW APT - 0 / 0 51.87460 / -0.36843 27 / 27 nm London Luton

Altitude Profile

Advertisement - Login to hide

EGLC

Details ICAO EGLC (LCY)
Name London City
Region United Kingdom
Timezone Europe/London (UTC+1.0)
Stats Elevation 19 ft / 6 m (AMSL)
Location 51.505200° 0.055183°
Runways 1
Magnetic Variation 0.011° W

METAR

EGLC 051620Z AUTO 27021KT 9999 NCD 20/06 Q1011

Decode

TAF

Not found

Departure Runways

ID Width Length Bearing (true/mag) Surface Threshold Overrun Markings Lighting
09 98 ft / 30 m 4,914 ft / 1,498 m 92.88° / 92.89° ASPHALT 308 ft / 94 m 190 ft / 58 m UK-PREC-APP CENTERLINE EDGE THRESHOLD MALS REIL-OMNI
27 98 ft / 30 m 4,914 ft / 1,498 m 272.90° / 272.91° ASPHALT 233 ft / 71 m 302 ft / 92 m UK-PREC-APP CENTERLINE EDGE THRESHOLD MALS REIL-OMNI

EGGW

Details ICAO EGGW (LTN)
Name London Luton
Region United Kingdom
Timezone Europe/London (UTC+1.0)
Stats Elevation 524 ft / 160 m (AMSL)
Location 51.874600° -0.368432°
Runways 1
Magnetic Variation 0.194° W

METAR

EGGW 051620Z AUTO 25023KT 9999 SCT043 18/07 Q1011

Decode

TAF

TAF EGGW 051054Z 0512/0612 26022G32KT 9999 SCT030 TEMPO 0520/0523 25015KT BECMG 0523/0602 27012KT TEMPO 0606/0612 28017G27KT

Decode

Destination Runways

ID Width Length Bearing (true/mag) Surface Threshold Overrun Markings Lighting
07 150 ft / 46 m 7,067 ft / 2,154 m 74.35° / 74.54° ASPHALT 0 ft / 0 m 197 ft / 60 m UK-PREC-APP CENTERLINE EDGE THRESHOLD ALSF-I REIL-OMNI
25 150 ft / 46 m 7,067 ft / 2,154 m 254.37° / 254.57° ASPHALT 279 ft / 85 m 0 ft / 0 m UK-PREC-APP CENTERLINE EDGE THRESHOLD CALVERT REIL-OMNI

Approach Navaids

Runway Type Ident Frequency Range Bearing (true/mag) Slope Elevation
07 GS ILTN 109.15 MHz 10 nm / 19 km 74.36° / 74.55 ° 3.00° 526 ft / 160 m (AMSL)
07 LOC-ILS ILTN 109.15 MHz 18 nm / 33 km 74.36° / 74.55 ° - 526 ft / 160 m (AMSL)
25 LOC-ILS ILJ 109.15 MHz 18 nm / 33 km 254.36° / 254.55 ° - 526 ft / 160 m (AMSL)
25 GS ILJ 109.15 MHz 10 nm / 19 km 254.36° / 254.55 ° 3.00° 526 ft / 160 m (AMSL)

Popular Alternatives